Tera North, Indiana
Current Conditions -  °F | °C
As of 4:53 PM on Sunday 23 Nov 2014 (Local Time) from KHUF Reporting Station
Light Rain Light Rain  
Wind Chill: 53°   Ceiling: 500
Heat Index: 53°   Visibility: 4mi
Dew Point: 51°   Wind: 7mph
Humidity: 93%   Direction: 120°ESE
Pressure: 29.44"   Gusts: NA
Location:  39.543°N, 87.3153°W
Report Text: KHUF 232153Z 12006KT 4SM -RA BR OVC005 12/11 A2944 RMK AO2 CIG 004V009 SLP968 P0011 T01170106 $
Loading
Personal Weather Stations






























Interactive Weather Map New forecast layout! Learn more

10-Day Weather Forecast

Advertisements
Track Severe Weather on mobile